MQL weather

Mildura Airport
Mildura, Victoria, Australia

Public forecast

Using degrees Celsius for public forecast. Weather courtesy of forecast.io.

Current aviation weather report (METAR) for Mildura Airport

Retrieved 2019/10/14 15:00 UTC (5 minutes ago):

YMIA 141500Z AUTO 22007KT 9999 // NCD 14/07 Q1015

Closest aviation forecast (TAF) to Mildura Airport

Closest forecast is Adelaide International Airport, 180.9 nm (335.0 km) WSW. Retrieved 2019/10/14 12:37 UTC (2 hours ago):

TAF YPAD 141134Z 1412/1518 14007KT 9999 FEW030 FM141600 06005KT CAVOK FM150000 22008KT CAVOK FM150300 22010KT 9999 -SHRA NSC FM150900 14007KT 9999 -RA SCT020 FM151600 22006KT 9999 -RA SCT020 BKN030 INTER 1516/1518 5000 RA BKN015